Time;durP1;ratioP1;P1;durP2;ratioP2;P2;SDS_P1;SDS_P2;PMS_P1;PMS_P2;Temp;Humidity;BMP_temperature;BMP_pressure;BME280_temperature;BME280_humidity;BME280_pressure;Samples;Min_cycle;Max_cycle;Signal;HPM_P1;HPM_P2
2022/01/10 00:04:09;;;;;;;25.38;15.02;;;;;;;11.91;86.24;100169.59;4972530;28;20049;-95
2022/01/10 00:09:56;;;;;;;24.23;14.80;;;;;;;11.90;87.46;100186.13;4975253;28;20073;-94
2022/01/10 00:15:45;;;;;;;28.83;14.82;;;;;;;12.16;86.73;100209.81;4956201;29;20195;-96
2022/01/10 00:21:32;;;;;;;25.08;14.95;;;;;;;12.18;86.14;100218.59;4976071;28;20089;-96
2022/01/10 00:27:20;;;;;;;26.58;13.98;;;;;;;12.08;86.43;100195.53;4968649;28;20045;-94
2022/01/10 00:33:07;;;;;;;25.75;15.00;;;;;;;11.90;85.98;100159.97;4981665;28;20562;-95
2022/01/10 00:38:55;;;;;;;25.17;14.02;;;;;;;11.96;86.38;100178.53;4975993;28;20045;-96
2022/01/10 00:44:50;;;;;;;22.98;13.57;;;;;;;12.02;85.31;100172.63;4991851;28;20041;-93
2022/01/10 00:50:37;;;;;;;24.92;13.93;;;;;;;12.06;85.44;100171.03;4993090;28;20066;-94
2022/01/10 00:56:24;;;;;;;23.95;13.90;;;;;;;11.98;85.67;100170.72;4993692;28;20392;-94
2022/01/10 01:02:11;;;;;;;24.77;13.93;;;;;;;11.96;85.77;100167.19;4994478;28;20515;-93
2022/01/10 01:08:02;;;;;;;25.60;14.07;;;;;;;12.12;85.85;100193.06;4979697;28;20045;-92
2022/01/10 01:14:06;;;;;;;22.02;13.43;;;;;;;12.04;85.93;100176.19;4976902;28;20057;-95
2022/01/10 01:20:08;;;;;;;22.60;13.95;;;;;;;11.98;86.48;100165.47;4974558;28;20049;-95
2022/01/10 01:25:56;;;;;;;27.20;15.10;;;;;;;11.79;86.52;100127.25;4974821;28;20038;-94
2022/01/10 01:31:44;;;;;;;24.40;14.18;;;;;;;12.09;85.25;100166.81;4989933;28;20395;-95
2022/01/10 01:37:31;;;;;;;21.70;13.80;;;;;;;12.00;85.97;100148.13;4988482;28;20069;-95
2022/01/10 01:43:18;;;;;;;22.73;13.77;;;;;;;12.11;85.42;100172.09;5004644;28;20384;-96
2022/01/10 01:49:06;;;;;;;23.02;13.88;;;;;;;12.09;84.82;100158.94;4996146;28;20116;-95
2022/01/10 01:54:54;;;;;;;23.48;14.02;;;;;;;12.20;84.11;100175.94;5005222;28;20065;-96
2022/01/10 02:00:41;;;;;;;22.20;13.50;;;;;;;12.00;85.27;100167.34;4980821;28;20041;-92
2022/01/10 02:06:29;;;;;;;23.65;14.13;;;;;;;11.79;85.33;100138.59;4996371;28;20037;-96
2022/01/10 02:12:17;;;;;;;22.48;13.90;;;;;;;12.00;85.61;100169.03;4995482;28;20054;-95
2022/01/10 02:18:04;;;;;;;21.83;13.95;;;;;;;11.97;85.19;100159.38;4996027;28;20107;-96
2022/01/10 02:23:51;;;;;;;23.90;13.52;;;;;;;12.02;84.05;100146.44;4997409;28;20431;-95
2022/01/10 02:29:38;;;;;;;24.50;13.82;;;;;;;11.83;85.86;100152.66;4996080;28;20084;-96
2022/01/10 02:39:42;;;;;;;19.98;12.35;;;;;;;12.04;84.63;100180.53;4979224;28;20392;-96
2022/01/10 02:45:29;;;;;;;22.40;12.73;;;;;;;11.94;84.72;100159.25;4974551;28;20062;-94
2022/01/10 02:51:17;;;;;;;22.90;13.45;;;;;;;12.14;84.17;100186.19;4982533;28;20053;-96
2022/01/10 02:57:04;;;;;;;23.08;12.57;;;;;;;12.07;84.25;100202.50;4979312;28;20038;-96
2022/01/10 03:02:54;;;;;;;22.42;13.52;;;;;;;12.16;83.75;100194.09;4970023;28;20042;-96
2022/01/10 03:08:41;;;;;;;21.95;13.10;;;;;;;11.94;84.54;100174.97;4980552;28;20042;-96
2022/01/10 03:14:29;;;;;;;20.45;12.73;;;;;;;11.90;85.57;100193.97;4974570;28;20065;-92
2022/01/10 03:20:16;;;;;;;21.75;13.25;;;;;;;11.94;83.77;100167.09;4975927;28;20052;-93
2022/01/10 03:26:03;;;;;;;19.55;12.82;;;;;;;11.94;84.52;100193.28;4975581;28;20046;-94
2022/01/10 03:31:51;;;;;;;20.73;12.88;;;;;;;11.89;84.12;100181.72;4974519;28;20041;-94
2022/01/10 03:42:06;;;;;;;23.17;13.55;;;;;;;12.04;84.13;100218.06;4971804;28;20053;-95
2022/01/10 03:47:54;;;;;;;23.42;13.35;;;;;;;11.76;84.88;100192.50;4974906;28;20111;-95
2022/01/10 03:53:41;;;;;;;21.35;12.35;;;;;;;12.02;83.34;100198.78;4974573;28;20464;-94
2022/01/10 03:59:28;;;;;;;20.20;12.57;;;;;;;11.90;84.09;100198.34;4974752;28;20085;-93
2022/01/10 04:05:16;;;;;;;21.73;12.18;;;;;;;11.64;84.24;100164.16;4973723;28;20161;-91
2022/01/10 04:11:04;;;;;;;18.60;12.27;;;;;;;12.09;83.45;100219.16;4974916;28;20114;-94
2022/01/10 04:16:51;;;;;;;20.50;12.43;;;;;;;11.97;83.81;100210.81;4971418;28;20519;-94
2022/01/10 04:22:38;;;;;;;19.38;11.98;;;;;;;11.93;83.42;100196.69;4962185;28;20082;-93
2022/01/10 04:28:26;;;;;;;18.67;11.65;;;;;;;11.99;84.06;100214.38;4975439;28;20179;-93
2022/01/10 04:34:13;;;;;;;20.88;12.75;;;;;;;11.72;84.62;100190.59;4974350;28;20049;-94
2022/01/10 04:44:28;;;;;;;18.77;11.98;;;;;;;11.83;84.04;100204.97;4958723;29;20050;-94
2022/01/10 04:56:08;;;;;;;18.58;11.55;;;;;;;11.97;83.17;100237.84;4974352;28;20050;-95
2022/01/10 05:01:55;;;;;;;18.88;11.93;;;;;;;11.87;83.29;100219.97;4970769;28;20130;-94
2022/01/10 05:07:42;;;;;;;19.65;11.80;;;;;;;11.76;84.23;100227.41;4974718;28;20038;-94
2022/01/10 05:13:30;;;;;;;21.02;12.05;;;;;;;12.06;83.32;100237.31;4973577;28;20051;-93
2022/01/10 05:19:18;;;;;;;20.15;12.02;;;;;;;11.96;82.92;100224.75;4977638;28;20053;-94
2022/01/10 05:25:05;;;;;;;19.27;12.50;;;;;;;11.83;83.57;100228.53;4965695;28;20071;-95
2022/01/10 05:30:55;;;;;;;19.95;11.65;;;;;;;11.95;83.36;100246.50;4975836;28;20042;-96
2022/01/10 05:36:42;;;;;;;18.15;11.55;;;;;;;11.78;83.82;100214.38;4978083;28;20046;-95
2022/01/10 05:47:12;;;;;;;19.60;11.35;;;;;;;11.87;82.89;100221.69;4997007;28;20142;-95
2022/01/10 05:53:00;;;;;;;18.60;11.60;;;;;;;11.84;83.00;100229.44;4990693;28;20033;-95
2022/01/10 05:58:47;;;;;;;19.48;11.68;;;;;;;11.89;83.38;100244.50;4997918;28;20145;-93
2022/01/10 06:04:34;;;;;;;19.02;11.32;;;;;;;11.91;82.21;100234.13;4997234;28;20033;-93
2022/01/10 06:10:22;;;;;;;19.80;11.23;;;;;;;11.95;82.23;100239.53;4984261;28;20061;-95
2022/01/10 06:16:09;;;;;;;20.17;12.32;;;;;;;11.85;83.34;100253.03;4996611;28;20046;-95
2022/01/10 06:21:57;;;;;;;18.77;11.55;;;;;;;11.87;83.44;100281.88;5002526;28;20040;-95
2022/01/10 06:27:44;;;;;;;19.05;10.95;;;;;;;11.82;82.02;100242.44;4995365;28;20041;-94
2022/01/10 06:33:32;;;;;;;20.20;11.27;;;;;;;11.68;82.70;100238.38;4989040;28;20041;-95
2022/01/10 06:39:19;;;;;;;18.60;11.40;;;;;;;11.92;83.19;100298.72;4995534;28;20132;-94
2022/01/10 06:49:15;;;;;;;18.42;11.90;;;;;;;11.93;82.34;100288.28;4995446;28;19942;-95
2022/01/10 06:55:02;;;;;;;21.13;11.63;;;;;;;11.87;82.24;100279.25;4995646;28;20038;-94
2022/01/10 07:00:50;;;;;;;21.45;12.85;;;;;;;11.85;83.13;100297.50;4995390;28;20097;-95
2022/01/10 07:06:40;;;;;;;21.02;12.82;;;;;;;11.81;82.82;100285.16;4995556;28;20148;-93
2022/01/10 07:12:27;;;;;;;21.88;12.93;;;;;;;11.81;82.60;100272.06;4995293;28;20142;-92
2022/01/10 07:24:58;;;;;;;19.90;12.88;;;;;;;11.74;82.86;100267.41;4994860;28;20041;-91
2022/01/10 07:30:46;;;;;;;20.15;12.70;;;;;;;11.78;82.64;100277.16;4979706;28;20392;-91
2022/01/10 07:36:35;;;;;;;21.42;12.35;;;;;;;11.67;82.94;100281.06;4994707;28;20041;-90
2022/01/10 07:42:23;;;;;;;21.52;12.55;;;;;;;11.97;82.41;100318.09;4993109;28;20460;-89
2022/01/10 07:52:53;;;;;;;20.35;11.15;;;;;;;11.53;82.89;100259.56;4992841;28;20538;-90
2022/01/10 07:58:40;;;;;;;20.73;12.27;;;;;;;11.70;81.74;100268.09;4994299;28;20053;-90
2022/01/10 08:04:27;;;;;;;19.40;11.95;;;;;;;11.91;82.43;100330.91;4980591;28;20042;-88
2022/01/10 08:10:14;;;;;;;20.58;12.27;;;;;;;11.86;82.44;100319.34;4993033;28;20102;-90
2022/01/10 08:16:02;;;;;;;18.83;11.65;;;;;;;11.72;82.63;100301.34;4993884;28;20037;-90
2022/01/10 08:21:50;;;;;;;20.38;11.57;;;;;;;11.75;81.75;100279.66;4993672;28;20041;-89
2022/01/10 08:27:37;;;;;;;21.50;11.35;;;;;;;11.82;81.37;100279.97;4974600;28;20037;-90
2022/01/10 08:33:24;;;;;;;19.60;11.93;;;;;;;11.83;82.24;100299.16;4973874;28;20499;-89
2022/01/10 08:39:11;;;;;;;18.52;11.40;;;;;;;12.02;81.32;100311.31;4982448;28;20037;-89
2022/01/10 08:44:58;;;;;;;19.70;11.45;;;;;;;12.09;81.00;100312.47;4974095;28;20041;-90
2022/01/10 08:55:27;;;;;;;20.02;12.10;;;;;;;11.96;81.42;100301.50;4974241;28;20066;-91
2022/01/10 09:01:14;;;;;;;19.77;11.93;;;;;;;11.88;81.64;100296.75;4987968;28;20042;-92
2022/01/10 09:07:02;;;;;;;21.20;12.05;;;;;;;11.74;81.61;100291.84;4974306;28;20029;-91
2022/01/10 09:12:31;;;;;;;22.50;12.10;;;;;;;11.59;82.45;100281.63;4984215;28;19996;-91
2022/01/10 09:18:19;;;;;;;20.98;12.00;;;;;;;11.89;82.33;100320.38;4974184;28;20444;-91
2022/01/10 09:24:06;;;;;;;21.20;12.18;;;;;;;11.69;81.84;100279.41;4974727;28;20038;-91
2022/01/10 09:29:53;;;;;;;21.05;12.82;;;;;;;11.69;81.90;100290.75;4992474;28;20110;-90
2022/01/10 09:35:42;;;;;;;22.83;13.00;;;;;;;11.89;80.70;100277.63;4990924;28;20058;-90
2022/01/10 09:41:30;;;;;;;20.63;12.35;;;;;;;11.86;81.88;100315.00;4994263;28;20049;-91
2022/01/10 09:47:18;;;;;;;22.90;12.13;;;;;;;11.82;81.57;100281.69;4995408;28;20097;-91
2022/01/10 09:57:34;;;;;;;21.85;12.80;;;;;;;11.93;81.46;100303.09;4974499;28;20152;-92
2022/01/10 10:03:23;;;;;;;23.30;12.52;;;;;;;11.99;81.36;100303.34;4981896;28;20413;-91
2022/01/10 10:09:10;;;;;;;19.90;12.13;;;;;;;11.73;82.11;100269.13;4996896;28;20104;-93
2022/01/10 10:14:59;;;;;;;21.90;12.80;;;;;;;11.84;81.74;100269.56;4979130;28;20122;-90
2022/01/10 10:20:47;;;;;;;21.13;12.50;;;;;;;11.84;81.91;100273.91;4985534;28;20037;-91
2022/01/10 10:26:35;;;;;;;21.10;12.82;;;;;;;11.84;81.50;100271.31;4993107;28;20037;-91
2022/01/10 10:32:29;;;;;;;23.08;12.40;;;;;;;11.76;80.81;100242.19;4997247;28;20097;-90
2022/01/10 10:38:16;;;;;;;19.25;12.05;;;;;;;11.53;81.14;100197.69;4995747;28;20049;-91
2022/01/10 10:44:05;;;;;;;24.35;13.63;;;;;;;11.85;81.08;100258.25;4983351;28;20041;-92
2022/01/10 10:49:59;;;;;;;23.60;13.50;;;;;;;11.84;81.69;100266.97;4976830;28;20050;-93
2022/01/10 11:00:29;;;;;;;21.67;12.93;;;;;;;11.90;80.82;100277.72;4996073;28;20041;-92
2022/01/10 11:06:17;;;;;;;22.30;12.77;;;;;;;11.96;80.99;100280.56;4998025;28;20096;-90
2022/01/10 11:12:05;;;;;;;22.65;12.68;;;;;;;11.94;80.54;100290.09;4977057;28;20146;-91
2022/01/10 11:18:02;;;;;;;23.48;12.90;;;;;;;11.98;80.63;100289.38;4980343;28;20096;-89
2022/01/10 11:23:50;;;;;;;21.63;13.13;;;;;;;11.61;81.53;100251.19;4995278;28;20542;-91
2022/01/10 11:29:42;;;;;;;20.55;12.27;;;;;;;11.79;81.41;100294.66;4994841;28;20522;-89
2022/01/10 11:35:34;;;;;;;24.83;13.43;;;;;;;11.71;82.40;100306.53;4994809;28;20089;-90
2022/01/10 11:41:23;;;;;;;22.92;12.68;;;;;;;11.95;80.82;100302.31;4994504;28;20085;-91
2022/01/10 11:47:12;;;;;;;22.17;12.52;;;;;;;11.75;80.88;100277.06;4996325;28;20033;-91
2022/01/10 11:53:02;;;;;;;23.92;13.43;;;;;;;11.98;80.80;100312.94;4996151;28;20033;-93
2022/01/10 12:03:32;;;;;;;21.63;12.60;;;;;;;12.02;80.67;100330.53;4993036;28;20105;-94
2022/01/10 12:09:21;;;;;;;20.48;12.45;;;;;;;11.73;81.54;100331.91;4980990;28;20057;-94
2022/01/10 12:15:09;;;;;;;21.20;13.05;;;;;;;11.64;81.19;100297.53;4992581;28;20057;-94
2022/01/10 12:20:56;;;;;;;24.48;13.38;;;;;;;11.75;81.39;100324.13;4989112;28;20095;-92
2022/01/10 12:26:47;;;;;;;21.58;13.00;;;;;;;11.98;80.41;100359.09;4982275;28;20132;-92
2022/01/10 12:32:35;;;;;;;22.23;13.52;;;;;;;11.91;80.58;100344.88;4975299;28;20045;-94
2022/01/10 12:38:24;;;;;;;20.23;12.43;;;;;;;11.87;81.07;100355.13;4987125;28;20033;-94
2022/01/10 12:44:11;;;;;;;23.52;13.07;;;;;;;11.82;80.51;100347.97;4974989;28;20530;-93
2022/01/10 12:49:58;;;;;;;21.02;12.98;;;;;;;11.71;80.91;100346.66;4994522;28;20041;-96
2022/01/10 12:55:46;;;;;;;21.85;12.90;;;;;;;11.91;80.85;100384.13;4993703;28;20113;-94
2022/01/10 13:06:15;;;;;;;21.05;12.82;;;;;;;11.88;80.37;100362.16;4994521;28;20411;-95
2022/01/10 13:18:12;;;;;;;19.50;12.68;;;;;;;11.83;81.10;100385.50;4974912;28;20030;-95
2022/01/10 13:24:20;;;;;;;19.95;12.32;;;;;;;11.94;80.32;100393.88;4983550;28;20147;-95
2022/01/10 13:30:14;;;;;;;21.05;12.63;;;;;;;11.73;80.67;100368.53;4980429;28;20040;-94
2022/01/10 13:36:01;;;;;;;21.92;12.95;;;;;;;11.63;80.32;100331.47;4990507;28;20041;-92
2022/01/10 13:42:05;;;;;;;20.63;12.45;;;;;;;11.79;80.81;100389.72;4996514;28;20048;-95
2022/01/10 13:47:56;;;;;;;22.65;12.30;;;;;;;11.79;80.96;100400.19;4993247;28;20054;-94
2022/01/10 13:53:50;;;;;;;21.80;12.60;;;;;;;11.60;80.39;100369.72;4990033;28;20110;-92
2022/01/10 13:59:38;;;;;;;22.05;13.23;;;;;;;11.78;80.77;100418.41;4996253;28;20045;-95
2022/01/10 14:05:26;;;;;;;22.52;12.45;;;;;;;11.80;80.97;100443.81;4997796;28;20173;-94
2022/01/10 14:11:14;;;;;;;18.60;12.23;;;;;;;11.91;80.46;100446.03;4989607;28;20551;-94
2022/01/10 14:17:02;;;;;;;21.45;12.07;;;;;;;11.46;80.86;100378.69;4998713;28;20118;-94
2022/01/10 14:22:50;;;;;;;22.48;12.30;;;;;;;11.81;80.87;100463.03;4997422;28;20033;-95
2022/01/10 14:28:40;;;;;;;23.05;13.65;;;;;;;11.89;80.29;100458.16;5004456;28;20042;-96
2022/01/10 14:34:27;;;;;;;19.77;11.77;;;;;;;11.72;80.58;100442.56;4998068;28;20041;-93
2022/01/10 14:40:14;;;;;;;21.00;12.90;;;;;;;11.70;80.91;100467.78;4997156;28;20411;-95
2022/01/10 14:46:02;;;;;;;23.15;12.35;;;;;;;11.81;80.78;100489.22;5000477;28;20033;-95
2022/01/10 14:51:49;;;;;;;20.15;11.77;;;;;;;11.67;81.27;100493.81;4999540;28;20044;-95
2022/01/10 14:57:37;;;;;;;20.73;12.18;;;;;;;11.82;80.58;100520.66;4979996;28;20045;-95
2022/01/10 15:03:25;;;;;;;22.90;13.73;;;;;;;11.78;80.15;100497.78;4979255;28;20070;-94
2022/01/10 15:09:13;;;;;;;23.70;13.48;;;;;;;11.45;80.62;100465.81;4994328;28;20065;-95
2022/01/10 15:15:01;;;;;;;25.67;13.82;;;;;;;11.64;81.01;100516.31;5001280;28;20126;-95
2022/01/10 15:20:49;;;;;;;26.63;14.23;;;;;;;11.60;81.13;100510.06;4997235;28;20045;-95
2022/01/10 15:26:37;;;;;;;23.63;13.27;;;;;;;11.63;81.59;100522.38;4991005;28;20049;-95
2022/01/10 15:32:24;;;;;;;25.52;13.95;;;;;;;11.80;81.24;100544.97;4997786;28;20546;-94
2022/01/10 15:38:12;;;;;;;22.65;13.07;;;;;;;11.61;81.09;100532.75;4998181;28;20053;-95
2022/01/10 15:44:00;;;;;;;23.10;14.13;;;;;;;11.58;81.17;100545.72;4991452;28;20393;-95
2022/01/10 15:49:47;;;;;;;25.45;14.40;;;;;;;11.54;81.69;100552.50;4988743;28;20041;-95
2022/01/10 15:55:34;;;;;;;25.58;14.77;;;;;;;11.63;81.19;100575.56;4996185;28;20455;-95
2022/01/10 16:01:23;;;;;;;25.48;14.10;;;;;;;11.56;82.14;100590.09;5002325;28;20041;-95
2022/01/10 16:07:25;;;;;;;26.85;14.27;;;;;;;11.92;80.34;100602.22;5008197;28;20049;-95
2022/01/10 16:13:13;;;;;;;24.17;14.13;;;;;;;11.58;80.82;100598.00;5003483;28;20042;-94
2022/01/10 16:19:00;;;;;;;26.40;14.13;;;;;;;11.64;81.38;100606.16;4999208;28;20057;-96
2022/01/10 16:24:48;;;;;;;26.88;14.48;;;;;;;11.47;82.13;100617.50;5004476;28;20419;-96
2022/01/10 16:30:36;;;;;;;25.77;13.90;;;;;;;11.76;80.57;100630.25;4996299;28;20049;-90
2022/01/10 16:36:27;;;;;;;24.20;13.98;;;;;;;11.72;80.15;100612.59;4979992;28;20089;-92
2022/01/10 16:42:39;;;;;;;22.83;13.30;;;;;;;11.70;81.05;100648.25;4984978;28;20423;-96
2022/01/10 16:48:27;;;;;;;22.25;13.15;;;;;;;11.32;80.90;100602.88;5000259;28;20089;-95
2022/01/10 16:54:17;;;;;;;22.63;13.00;;;;;;;11.68;80.79;100683.91;5007135;28;20583;-95
2022/01/10 17:00:06;;;;;;;24.05;12.80;;;;;;;11.60;80.41;100664.38;5000361;28;20072;-96
2022/01/10 17:10:37;;;;;;;;;;;;;;;11.90;79.60;100698.97;4981801;28;20042;-96
2022/01/10 17:16:25;;;;;;;22.88;12.60;;;;;;;11.73;79.82;100687.66;4981066;28;20165;-96
2022/01/10 17:22:13;;;;;;;23.63;13.23;;;;;;;11.49;80.57;100686.47;4982630;28;20412;-94
2022/01/10 17:28:01;;;;;;;25.42;13.40;;;;;;;11.45;80.64;100680.22;4965602;28;20073;-95
2022/01/10 17:33:48;;;;;;;23.15;13.00;;;;;;;11.51;81.53;100724.94;4975409;28;20070;-94
2022/01/10 17:39:36;;;;;;;24.10;13.50;;;;;;;11.58;80.06;100700.91;4963442;29;20042;-94
2022/01/10 17:45:25;;;;;;;23.25;13.25;;;;;;;11.79;80.04;100736.78;4975478;28;20083;-94
2022/01/10 17:51:16;;;;;;;24.55;13.02;;;;;;;11.69;79.54;100730.19;4965576;28;20042;-95
2022/01/10 17:57:04;;;;;;;23.55;13.50;;;;;;;11.50;80.58;100735.34;4965252;28;20050;-94
2022/01/10 18:02:53;;;;;;;21.83;12.75;;;;;;;11.68;79.66;100754.53;4977428;28;20230;-93
2022/01/10 18:13:21;;;;;;;;;;;;;;;11.79;80.08;100784.75;4960276;28;20046;-94
2022/01/10 18:19:10;;;;;;;22.73;12.60;;;;;;;11.82;79.47;100770.91;4969065;28;20115;-91
2022/01/10 18:24:57;;;;;;;28.08;13.63;;;;;;;11.73;80.11;100780.94;4968664;28;20034;-94
2022/01/10 18:30:44;;;;;;;22.60;12.07;;;;;;;11.63;79.95;100763.88;4966042;28;20050;-94
2022/01/10 18:36:35;;;;;;;22.13;12.30;;;;;;;11.44;79.73;100748.09;4976251;28;20409;-90
2022/01/10 18:42:22;;;;;;;19.15;11.70;;;;;;;11.71;79.65;100795.66;4960471;28;20042;-90
2022/01/10 18:48:09;;;;;;;26.00;12.05;;;;;;;11.47;79.57;100748.25;4957128;29;20058;-93
2022/01/10 18:53:56;;;;;;;19.02;10.95;;;;;;;11.41;80.04;100778.50;4980014;28;20097;-92
2022/01/10 18:59:44;;;;;;;20.77;11.55;;;;;;;11.66;79.97;100811.09;4958090;29;20465;-94
2022/01/10 19:05:31;;;;;;;20.20;11.73;;;;;;;11.56;79.62;100794.06;4968835;28;20456;-92
2022/01/10 19:15:59;;;;;;;18.13;10.68;;;;;;;11.46;79.80;100798.75;4975360;28;20086;-95
2022/01/10 19:21:46;;;;;;;20.38;10.85;;;;;;;11.74;79.40;100812.38;4956904;28;20041;-95
2022/01/10 19:27:34;;;;;;;19.50;10.30;;;;;;;11.51;80.35;100823.41;4959959;28;20034;-92
2022/01/10 19:33:23;;;;;;;21.83;11.20;;;;;;;11.48;78.84;100778.81;4960717;28;20094;-92
2022/01/10 19:39:10;;;;;;;16.90;10.02;;;;;;;11.61;79.28;100834.41;4962307;28;20034;-93
2022/01/10 19:44:57;;;;;;;20.20;10.60;;;;;;;11.63;79.54;100857.16;4955672;28;20026;-92
2022/01/10 19:50:47;;;;;;;17.27;9.60;;;;;;;11.52;79.40;100860.13;4959717;28;20038;-92
2022/01/10 19:56:35;;;;;;;18.73;9.73;;;;;;;11.45;79.31;100834.47;4959914;28;20034;-94
2022/01/10 20:02:22;;;;;;;17.17;9.73;;;;;;;11.28;79.54;100817.94;4965372;28;20038;-93
2022/01/10 20:08:09;;;;;;;15.98;9.50;;;;;;;11.39;79.00;100836.78;4972043;28;20048;-92
2022/01/10 20:18:05;;;;;;;15.35;8.65;;;;;;;11.29;79.78;100852.81;4990645;28;19932;-94
2022/01/10 20:23:53;;;;;;;15.60;8.15;;;;;;;11.46;79.31;100869.38;4993686;28;20435;-89
2022/01/10 20:29:41;;;;;;;16.25;8.50;;;;;;;11.15;80.07;100836.38;4993496;28;20065;-91
2022/01/10 20:35:28;;;;;;;16.20;8.60;;;;;;;11.51;79.43;100892.31;4973402;28;20086;-89
2022/01/10 20:41:15;;;;;;;17.38;9.27;;;;;;;11.32;79.80;100884.31;4973642;28;20396;-89
2022/01/10 20:47:02;;;;;;;15.48;7.93;;;;;;;11.60;79.04;100881.44;4973004;28;20632;-90
2022/01/10 20:52:50;;;;;;;15.80;8.32;;;;;;;11.30;79.88;100884.25;4973403;28;20093;-90
2022/01/10 20:58:38;;;;;;;15.40;8.23;;;;;;;11.42;79.27;100881.38;4976912;28;20030;-93
2022/01/10 21:04:26;;;;;;;17.00;8.32;;;;;;;11.40;79.81;100906.53;4974762;28;20082;-93
2022/01/10 21:10:15;;;;;;;16.10;8.68;;;;;;;11.41;79.64;100924.03;4975589;28;20057;-94
2022/01/10 21:20:31;;;;;;;14.85;8.15;;;;;;;11.45;78.84;100896.31;4981586;28;20066;-93
2022/01/10 21:26:18;;;;;;;14.98;8.45;;;;;;;11.24;79.77;100877.78;4996466;28;20118;-96
2022/01/10 21:32:07;;;;;;;17.65;8.93;;;;;;;11.52;78.69;100896.72;4989123;28;20404;-92
2022/01/10 21:37:54;;;;;;;17.55;8.48;;;;;;;11.05;79.63;100850.69;4979639;28;20113;-94
2022/01/10 21:43:42;;;;;;;16.70;8.35;;;;;;;11.36;78.71;100895.00;4995653;28;20068;-95
2022/01/10 21:49:29;;;;;;;15.27;8.23;;;;;;;11.27;78.31;100883.19;4991175;28;20134;-94
2022/01/10 21:55:19;;;;;;;16.23;8.57;;;;;;;11.43;78.63;100901.50;4987554;28;20018;-96
2022/01/10 22:01:06;;;;;;;15.45;7.97;;;;;;;11.32;78.74;100897.38;4998654;28;20045;-95
2022/01/10 22:06:53;;;;;;;15.75;8.00;;;;;;;11.17;78.87;100882.69;4983241;28;20081;-94
2022/01/10 22:12:42;;;;;;;14.30;8.00;;;;;;;11.26;78.91;100913.66;4980334;28;20041;-91
2022/01/10 22:23:09;;;;;;;13.63;6.93;;;;;;;11.20;79.19;100893.31;4991717;28;20110;-91
2022/01/10 22:28:57;;;;;;;14.32;7.03;;;;;;;11.29;77.96;100902.47;4976948;28;20170;-95
2022/01/10 22:34:44;;;;;;;13.57;6.70;;;;;;;11.18;78.71;100907.13;4977010;28;20038;-92
2022/01/10 22:40:31;;;;;;;13.63;7.53;;;;;;;11.17;78.00;100900.97;4996125;28;20041;-91
2022/01/10 22:46:19;;;;;;;12.48;6.90;;;;;;;11.22;78.09;100898.63;4995435;28;20181;-92
2022/01/10 22:52:06;;;;;;;13.40;7.15;;;;;;;11.16;78.83;100909.66;4996152;28;20040;-93
2022/01/10 22:57:54;;;;;;;13.85;6.55;;;;;;;11.30;78.48;100930.38;4995456;28;20084;-94
2022/01/10 23:03:43;;;;;;;11.45;6.65;;;;;;;10.98;78.41;100883.44;4996331;28;20045;-93
2022/01/10 23:09:30;;;;;;;14.30;6.35;;;;;;;11.11;78.57;100916.34;4985244;28;20069;-94
2022/01/10 23:15:18;;;;;;;10.73;6.05;;;;;;;11.36;77.70;100968.22;4994895;28;20104;-93
2022/01/10 23:25:48;;;;;;;12.45;6.55;;;;;;;11.00;78.79;100935.75;4995027;28;20049;-93
2022/01/10 23:31:35;;;;;;;13.18;6.38;;;;;;;11.22;78.15;100953.53;4996052;28;20037;-94
2022/01/10 23:37:22;;;;;;;14.75;6.30;;;;;;;10.99;78.12;100949.66;4989406;28;20526;-95
2022/01/10 23:43:10;;;;;;;8.90;5.45;;;;;;;11.06;77.96;100997.91;4999864;28;20053;-94
2022/01/10 23:48:58;;;;;;;10.85;5.80;;;;;;;11.24;77.42;101019.88;4995648;28;20122;-95
2022/01/10 23:54:46;;;;;;;13.10;6.28;;;;;;;11.04;77.78;101026.56;4994993;28;20158;-94
